Time;durP1;ratioP1;P1;durP2;ratioP2;P2;SDS_P1;SDS_P2;PMS_P1;PMS_P2;Temp;Humidity;BMP_temperature;BMP_pressure;BME280_temperature;BME280_humidity;BME280_pressure;Samples;Min_cycle;Max_cycle;Signal;HPM_P1;HPM_P2
2022/09/12 00:00:11;;;;;;;7.03;4.55;;;;;;;;;;4935060;29;20028;-72
2022/09/12 00:02:37;;;;;;;6.47;3.67;;;;;;;;;;4937578;29;20077;-72
2022/09/12 00:05:03;;;;;;;5.43;3.47;;;;;;;;;;4934467;29;20028;-71
2022/09/12 00:07:29;;;;;;;6.43;2.97;;;;;;;;;;4934168;29;20400;-71
2022/09/12 00:09:55;;;;;;;8.27;3.53;;;;;;;;;;4934195;29;20031;-72
2022/09/12 00:12:21;;;;;;;10.20;3.60;;;;;;;;;;4934649;29;20449;-71
2022/09/12 00:14:47;;;;;;;7.60;3.30;;;;;;;;;;4934294;29;20020;-72
2022/09/12 00:17:13;;;;;;;6.90;3.33;;;;;;;;;;4933907;29;20015;-73
2022/09/12 00:19:38;;;;;;;6.30;3.22;;;;;;;;;;4934329;29;20024;-72
2022/09/12 00:22:04;;;;;;;7.47;2.97;;;;;;;;;;4934141;29;20118;-73
2022/09/12 00:24:32;;;;;;;6.07;3.58;;;;;;;;;;4934114;29;20022;-73
2022/09/12 00:26:58;;;;;;;9.32;3.53;;;;;;;;;;4933794;29;20024;-72
2022/09/12 00:29:24;;;;;;;10.98;3.33;;;;;;;;;;4937704;29;20035;-73
2022/09/12 00:31:50;;;;;;;4.65;2.95;;;;;;;;;;4934559;29;20042;-73
2022/09/12 00:34:16;;;;;;;4.47;3.10;;;;;;;;;;4934504;29;20036;-73
2022/09/12 00:36:42;;;;;;;6.05;3.42;;;;;;;;;;4934103;29;20060;-72
2022/09/12 00:39:08;;;;;;;7.13;2.97;;;;;;;;;;4934069;29;20457;-72
2022/09/12 00:41:39;;;;;;;5.05;2.72;;;;;;;;;;4933745;29;20477;-72
2022/09/12 00:44:23;;;;;;;7.93;3.20;;;;;;;;;;4933840;29;20082;-72
2022/09/12 00:47:10;;;;;;;5.67;2.77;;;;;;;;;;4934159;29;20034;-72
2022/09/12 00:49:38;;;;;;;9.40;2.97;;;;;;;;;;4934385;29;20027;-72
2022/09/12 00:52:24;;;;;;;6.78;2.97;;;;;;;;;;4935072;29;20023;-74
2022/09/12 00:54:50;;;;;;;4.30;2.90;;;;;;;;;;4934127;29;20032;-73
2022/09/12 00:57:17;;;;;;;5.80;2.60;;;;;;;;;;4933396;29;20034;-73
2022/09/12 00:59:49;;;;;;;4.13;2.67;;;;;;;;;;4933731;29;20030;-73
2022/09/12 01:02:16;;;;;;;5.97;3.10;;;;;;;;;;4932914;29;20107;-73
2022/09/12 01:04:43;;;;;;;7.05;3.20;;;;;;;;;;4932702;29;20099;-72
2022/09/12 01:07:09;;;;;;;7.68;3.22;;;;;;;;;;4933040;29;20020;-71
2022/09/12 01:09:36;;;;;;;5.03;3.00;;;;;;;;;;4933665;29;20027;-71
2022/09/12 01:12:02;;;;;;;4.68;2.53;;;;;;;;;;4933478;29;20086;-72
2022/09/12 01:14:29;;;;;;;4.53;2.33;;;;;;;;;;4933665;29;20388;-71
2022/09/12 01:16:55;;;;;;;3.40;2.50;;;;;;;;;;4933345;29;20036;-73
2022/09/12 01:19:38;;;;;;;4.60;2.58;;;;;;;;;;4933800;29;20093;-71
2022/09/12 01:22:04;;;;;;;5.97;2.28;;;;;;;;;;4933790;29;20067;-72
2022/09/12 01:24:30;;;;;;;4.22;2.60;;;;;;;;;;4934010;29;20031;-72
2022/09/12 01:27:12;;;;;;;6.55;2.67;;;;;;;;;;4933587;29;20028;-72
2022/09/12 01:29:41;;;;;;;5.60;2.15;;;;;;;;;;4933346;29;20122;-74
2022/09/12 01:32:15;;;;;;;4.03;2.00;;;;;;;;;;4934154;29;20039;-72
2022/09/12 01:34:46;;;;;;;4.13;2.50;;;;;;;;;;4939407;29;20070;-73
2022/09/12 01:37:15;;;;;;;2.67;2.00;;;;;;;;;;4953127;29;20028;-72
2022/09/12 01:39:55;;;;;;;4.72;2.13;;;;;;;;;;4936217;29;20032;-72
2022/09/12 01:42:24;;;;;;;6.68;2.20;;;;;;;;;;4953615;29;20035;-73
2022/09/12 01:44:56;;;;;;;2.92;2.13;;;;;;;;;;4949112;29;20092;-72
2022/09/12 01:47:31;;;;;;;3.60;2.53;;;;;;;;;;4951571;29;20076;-71
2022/09/12 01:50:01;;;;;;;4.70;2.45;;;;;;;;;;4951200;29;20044;-71
2022/09/12 01:52:36;;;;;;;3.58;2.20;;;;;;;;;;4952368;29;20016;-71
2022/09/12 01:55:09;;;;;;;4.93;2.47;;;;;;;;;;4934643;29;20100;-72
2022/09/12 01:57:50;;;;;;;6.68;2.45;;;;;;;;;;4953913;29;20079;-73
2022/09/12 02:00:16;;;;;;;3.17;2.50;;;;;;;;;;4955857;29;20019;-73
2022/09/12 02:02:46;;;;;;;7.10;3.13;;;;;;;;;;4955864;29;20023;-73
2022/09/12 02:05:12;;;;;;;7.13;3.08;;;;;;;;;;4955778;29;20031;-72
2022/09/12 02:07:51;;;;;;;3.95;2.35;;;;;;;;;;4950780;29;20114;-71
2022/09/12 02:10:24;;;;;;;6.95;2.00;;;;;;;;;;4932972;29;20028;-73
2022/09/12 02:12:59;;;;;;;5.45;2.35;;;;;;;;;;4936266;29;20135;-71
2022/09/12 02:15:28;;;;;;;3.80;2.13;;;;;;;;;;4932363;29;20024;-72
2022/09/12 02:17:56;;;;;;;3.33;2.00;;;;;;;;;;4933561;29;20035;-73
2022/09/12 02:20:25;;;;;;;2.88;2.00;;;;;;;;;;4935939;29;20035;-72
2022/09/12 02:22:52;;;;;;;3.20;2.10;;;;;;;;;;4933340;29;20062;-72
2022/09/12 02:25:19;;;;;;;4.38;1.83;;;;;;;;;;4934269;28;20021;-73
2022/09/12 02:27:50;;;;;;;5.93;2.17;;;;;;;;;;5031555;28;20080;-73
2022/09/12 02:30:18;;;;;;;2.75;2.08;;;;;;;;;;5032383;28;20029;-71
2022/09/12 02:33:00;;;;;;;3.45;1.90;;;;;;;;;;5032230;28;20450;-71
2022/09/12 02:35:32;;;;;;;5.78;2.10;;;;;;;;;;5032088;28;20360;-72
2022/09/12 02:38:14;;;;;;;3.00;1.67;;;;;;;;;;5031881;28;20044;-72
2022/09/12 02:40:40;;;;;;;5.45;2.00;;;;;;;;;;5031803;28;20479;-71
2022/09/12 02:43:06;;;;;;;3.53;1.80;;;;;;;;;;5032120;28;20486;-72
2022/09/12 02:45:33;;;;;;;4.45;2.15;;;;;;;;;;5031794;28;20021;-73
2022/09/12 02:48:02;;;;;;;10.23;2.72;;;;;;;;;;5031936;28;20044;-73
2022/09/12 02:50:28;;;;;;;4.93;2.30;;;;;;;;;;5031963;28;20483;-74
2022/09/12 02:52:58;;;;;;;6.43;2.20;;;;;;;;;;5030610;28;20546;-74
2022/09/12 02:55:24;;;;;;;2.80;1.90;;;;;;;;;;5014443;28;20075;-74
2022/09/12 02:57:50;;;;;;;4.60;2.00;;;;;;;;;;5033763;28;20387;-73
2022/09/12 03:00:16;;;;;;;3.33;2.05;;;;;;;;;;5032920;28;20030;-73
2022/09/12 03:02:48;;;;;;;3.67;1.88;;;;;;;;;;5031979;28;20025;-72
2022/09/12 03:05:18;;;;;;;5.47;2.45;;;;;;;;;;5032449;28;20028;-73
2022/09/12 03:08:03;;;;;;;4.68;2.30;;;;;;;;;;5015744;28;20083;-73
2022/09/12 03:10:40;;;;;;;5.50;2.22;;;;;;;;;;5046052;28;20040;-73
2022/09/12 03:13:35;;;;;;;3.08;2.20;;;;;;;;;;5050290;28;20048;-74
2022/09/12 03:16:19;;;;;;;6.43;2.80;;;;;;;;;;4994741;28;20063;-74
2022/09/12 03:18:51;;;;;;;4.53;2.80;;;;;;;;;;5031792;28;20033;-72
2022/09/12 03:21:32;;;;;;;4.63;2.33;;;;;;;;;;5031583;28;20022;-72
2022/09/12 03:23:59;;;;;;;4.13;2.50;;;;;;;;;;5033106;28;20032;-71
2022/09/12 03:26:32;;;;;;;4.40;2.13;;;;;;;;;;5034269;28;20029;-71
2022/09/12 03:28:59;;;;;;;7.18;2.08;;;;;;;;;;5035754;28;20128;-73
2022/09/12 03:31:25;;;;;;;7.13;2.28;;;;;;;;;;5036192;28;20449;-73
2022/09/12 03:33:51;;;;;;;6.40;2.50;;;;;;;;;;5035679;28;20108;-73
2022/09/12 03:36:24;;;;;;;6.72;2.53;;;;;;;;;;5035077;28;20129;-72
2022/09/12 03:38:50;;;;;;;3.63;2.60;;;;;;;;;;5035291;28;20033;-73
2022/09/12 03:41:16;;;;;;;4.85;2.40;;;;;;;;;;5035044;28;20083;-72
2022/09/12 03:43:43;;;;;;;4.60;2.40;;;;;;;;;;5035140;28;20036;-73
2022/09/12 03:46:09;;;;;;;6.30;2.63;;;;;;;;;;5034994;28;20036;-74
2022/09/12 03:48:35;;;;;;;7.80;3.08;;;;;;;;;;5034920;28;20030;-73
2022/09/12 03:51:02;;;;;;;6.20;2.83;;;;;;;;;;5034665;28;20056;-73
2022/09/12 03:53:29;;;;;;;5.95;3.65;;;;;;;;;;5034757;28;20064;-73
2022/09/12 03:55:55;;;;;;;6.60;3.28;;;;;;;;;;5035114;28;20510;-73
2022/09/12 03:58:21;;;;;;;9.43;3.25;;;;;;;;;;5016912;28;20051;-73
2022/09/12 04:00:47;;;;;;;7.10;2.60;;;;;;;;;;5034414;28;20486;-73
2022/09/12 04:03:13;;;;;;;11.32;2.50;;;;;;;;;;5034582;28;20504;-72
2022/09/12 04:05:39;;;;;;;7.60;2.60;;;;;;;;;;5034943;28;20024;-73
2022/09/12 04:08:05;;;;;;;5.20;2.92;;;;;;;;;;5034611;28;20399;-72
2022/09/12 04:10:31;;;;;;;4.35;2.47;;;;;;;;;;5034325;28;20479;-74
2022/09/12 04:12:57;;;;;;;3.80;2.45;;;;;;;;;;5034371;28;20029;-72
2022/09/12 04:15:23;;;;;;;12.40;2.90;;;;;;;;;;5035867;28;20367;-73
2022/09/12 04:17:49;;;;;;;5.03;3.00;;;;;;;;;;5034554;28;20033;-74
2022/09/12 04:20:15;;;;;;;4.50;2.80;;;;;;;;;;5034193;28;20394;-73
2022/09/12 04:22:41;;;;;;;7.55;3.63;;;;;;;;;;5034617;28;20537;-73
2022/09/12 04:25:08;;;;;;;7.45;4.35;;;;;;;;;;5036387;28;20037;-73
2022/09/12 04:27:34;;;;;;;18.92;5.60;;;;;;;;;;5017494;28;20121;-73
2022/09/12 04:30:01;;;;;;;10.43;4.18;;;;;;;;;;5034793;28;20032;-72
2022/09/12 04:32:28;;;;;;;6.50;3.45;;;;;;;;;;5016521;28;20028;-72
2022/09/12 04:34:54;;;;;;;10.93;3.58;;;;;;;;;;5034645;28;20029;-74
2022/09/12 04:37:20;;;;;;;8.10;3.85;;;;;;;;;;5035631;28;20030;-73
2022/09/12 04:39:48;;;;;;;5.70;3.10;;;;;;;;;;5037654;28;20021;-73
2022/09/12 04:42:14;;;;;;;7.70;3.40;;;;;;;;;;5034749;28;20021;-73
2022/09/12 04:44:40;;;;;;;6.65;3.60;;;;;;;;;;5020520;28;20373;-73
2022/09/12 04:47:06;;;;;;;10.70;3.75;;;;;;;;;;5034945;28;20014;-72
2022/09/12 04:49:32;;;;;;;10.48;6.05;;;;;;;;;;5017796;28;20026;-73
2022/09/12 04:51:58;;;;;;;6.68;4.03;;;;;;;;;;5040232;28;20033;-73
2022/09/12 04:54:24;;;;;;;5.45;3.22;;;;;;;;;;5034955;28;20045;-73
2022/09/12 04:56:51;;;;;;;5.60;3.40;;;;;;;;;;5040678;28;20486;-73
2022/09/12 04:59:18;;;;;;;6.82;4.05;;;;;;;;;;5025256;28;20026;-73
2022/09/12 05:01:44;;;;;;;4.80;3.65;;;;;;;;;;5017366;28;20022;-73
2022/09/12 05:04:11;;;;;;;6.90;4.20;;;;;;;;;;5017421;28;20367;-73
2022/09/12 05:06:38;;;;;;;8.65;4.05;;;;;;;;;;5034098;28;20498;-74
2022/09/12 05:09:05;;;;;;;7.82;4.90;;;;;;;;;;5035470;28;20497;-72
2022/09/12 05:11:33;;;;;;;19.45;7.82;;;;;;;;;;5038458;28;20028;-73
2022/09/12 05:13:59;;;;;;;9.55;5.22;;;;;;;;;;5017022;28;20112;-73
2022/09/12 05:16:26;;;;;;;13.50;4.90;;;;;;;;;;5033367;28;20026;-72
2022/09/12 05:18:52;;;;;;;9.18;4.22;;;;;;;;;;5015289;28;20030;-72
2022/09/12 05:21:23;;;;;;;9.85;4.72;;;;;;;;;;5038382;28;20350;-76
2022/09/12 05:23:53;;;;;;;9.68;4.30;;;;;;;;;;5037522;28;20036;-72
2022/09/12 05:26:21;;;;;;;13.20;5.30;;;;;;;;;;5037653;28;20045;-74
2022/09/12 05:28:48;;;;;;;12.88;5.88;;;;;;;;;;5035613;28;20021;-72
2022/09/12 05:31:32;;;;;;;17.58;6.43;;;;;;;;;;5015966;28;20056;-71
2022/09/12 05:33:58;;;;;;;17.90;5.88;;;;;;;;;;5036387;28;20033;-73
2022/09/12 05:36:26;;;;;;;11.43;5.38;;;;;;;;;;5019484;28;20029;-75
2022/09/12 05:38:52;;;;;;;14.82;6.68;;;;;;;;;;5033153;28;20033;-72
2022/09/12 05:41:25;;;;;;;24.52;8.02;;;;;;;;;;5015288;28;20120;-73
2022/09/12 05:43:55;;;;;;;23.85;7.13;;;;;;;;;;5033135;28;20041;-77
2022/09/12 05:46:22;;;;;;;18.55;6.57;;;;;;;;;;5032802;28;20044;-71
2022/09/12 05:48:49;;;;;;;23.45;6.35;;;;;;;;;;5033025;28;20079;-75
2022/09/12 05:51:18;;;;;;;15.90;8.50;;;;;;;;;;5032702;28;20116;-73
2022/09/12 05:53:44;;;;;;;16.73;9.45;;;;;;;;;;5033121;28;20431;-72
2022/09/12 05:56:11;;;;;;;14.82;8.18;;;;;;;;;;5033786;28;20033;-71
2022/09/12 05:58:38;;;;;;;13.98;7.72;;;;;;;;;;5016538;28;20037;-72
2022/09/12 06:01:06;;;;;;;18.50;7.90;;;;;;;;;;5035995;28;20487;-72
2022/09/12 06:03:32;;;;;;;11.27;7.30;;;;;;;;;;5037281;28;20033;-73
2022/09/12 06:06:02;;;;;;;16.50;7.60;;;;;;;;;;5035796;28;20100;-73
2022/09/12 06:08:28;;;;;;;14.80;7.85;;;;;;;;;;5034752;28;20018;-73
2022/09/12 06:10:58;;;;;;;14.20;8.07;;;;;;;;;;5035238;28;20021;-73
2022/09/12 06:13:24;;;;;;;12.77;8.23;;;;;;;;;;5017288;28;20441;-73
2022/09/12 06:15:50;;;;;;;14.82;8.55;;;;;;;;;;5034123;28;20718;-74
2022/09/12 06:18:16;;;;;;;16.13;10.57;;;;;;;;;;5034044;28;20026;-76
2022/09/12 06:20:42;;;;;;;17.15;11.38;;;;;;;;;;5032568;28;20471;-72
2022/09/12 06:23:08;;;;;;;24.73;11.55;;;;;;;;;;5033196;28;20382;-73
2022/09/12 06:25:34;;;;;;;20.60;12.13;;;;;;;;;;5032990;28;20101;-71
2022/09/12 06:28:00;;;;;;;17.17;11.75;;;;;;;;;;5035197;28;20044;-74
2022/09/12 06:30:26;;;;;;;22.60;12.57;;;;;;;;;;5037182;28;20053;-73
2022/09/12 06:32:52;;;;;;;18.50;12.25;;;;;;;;;;5035935;28;20027;-71
2022/09/12 06:35:18;;;;;;;18.20;12.05;;;;;;;;;;5034438;28;20104;-71
2022/09/12 06:37:44;;;;;;;23.77;12.82;;;;;;;;;;5034064;28;20053;-71
2022/09/12 06:40:11;;;;;;;23.70;13.55;;;;;;;;;;5033461;28;20510;-72
2022/09/12 06:42:37;;;;;;;23.70;14.02;;;;;;;;;;5032710;28;20103;-73
2022/09/12 06:45:03;;;;;;;28.88;14.70;;;;;;;;;;5032454;28;20532;-74
2022/09/12 06:47:29;;;;;;;23.70;13.13;;;;;;;;;;5032225;28;20032;-73
2022/09/12 06:49:55;;;;;;;24.02;14.20;;;;;;;;;;5033189;28;20018;-72
2022/09/12 06:52:21;;;;;;;25.60;14.90;;;;;;;;;;5033408;28;20623;-75
2022/09/12 06:54:47;;;;;;;29.70;14.52;;;;;;;;;;5015812;28;20128;-74
2022/09/12 06:57:13;;;;;;;30.83;14.55;;;;;;;;;;5035458;28;20025;-73
2022/09/12 06:59:39;;;;;;;42.60;19.52;;;;;;;;;;5038776;28;20029;-74
2022/09/12 07:02:06;;;;;;;98.55;38.92;;;;;;;;;;5041412;28;20091;-72
2022/09/12 07:04:35;;;;;;;95.13;37.70;;;;;;;;;;5037329;28;20024;-72
2022/09/12 07:07:01;;;;;;;32.22;14.88;;;;;;;;;;5033958;28;20470;-71
2022/09/12 07:09:29;;;;;;;20.10;12.70;;;;;;;;;;4957196;28;20031;-71
2022/09/12 07:11:55;;;;;;;22.73;13.60;;;;;;;;;;4954853;28;20020;-71
2022/09/12 07:14:21;;;;;;;32.00;15.07;;;;;;;;;;4955573;28;20031;-72
2022/09/12 07:16:47;;;;;;;38.05;18.20;;;;;;;;;;4954876;28;20107;-71
2022/09/12 07:19:13;;;;;;;22.75;14.30;;;;;;;;;;4956906;28;20059;-72
2022/09/12 07:21:40;;;;;;;84.95;34.75;;;;;;;;;;4937868;28;20236;-72
2022/09/12 07:24:07;;;;;;;40.00;18.75;;;;;;;;;;4955809;28;20047;-72
2022/09/12 07:26:34;;;;;;;27.42;13.30;;;;;;;;;;4955144;28;20454;-71
2022/09/12 07:29:00;;;;;;;47.63;19.67;;;;;;;;;;4960583;28;20061;-71
2022/09/12 07:31:27;;;;;;;18.38;11.35;;;;;;;;;;4956483;28;20069;-71
2022/09/12 07:33:53;;;;;;;52.45;23.17;;;;;;;;;;4939396;28;20034;-71
2022/09/12 07:36:21;;;;;;;31.60;14.55;;;;;;;;;;4956667;28;20089;-73
2022/09/12 07:38:47;;;;;;;31.02;14.07;;;;;;;;;;4955834;28;20031;-72
2022/09/12 07:41:13;;;;;;;18.27;10.52;;;;;;;;;;4954488;28;20042;-71
2022/09/12 07:43:40;;;;;;;15.00;9.15;;;;;;;;;;4957179;28;20069;-71
2022/09/12 07:46:06;;;;;;;14.90;9.73;;;;;;;;;;4955948;29;20027;-71
2022/09/12 07:48:32;;;;;;;12.27;8.48;;;;;;;;;;4957397;28;20028;-72
2022/09/12 07:50:59;;;;;;;15.55;9.05;;;;;;;;;;4955522;28;20055;-72
2022/09/12 07:53:26;;;;;;;15.05;8.82;;;;;;;;;;4954201;28;20027;-74
2022/09/12 07:55:55;;;;;;;12.32;8.88;;;;;;;;;;4954028;28;20027;-72
2022/09/12 07:58:21;;;;;;;14.30;9.00;;;;;;;;;;4954362;28;20042;-73
2022/09/12 08:00:47;;;;;;;18.15;9.30;;;;;;;;;;4955210;29;20031;-72
2022/09/12 08:03:13;;;;;;;12.35;8.45;;;;;;;;;;4954449;29;20110;-73
2022/09/12 08:05:39;;;;;;;12.23;8.60;;;;;;;;;;4954032;29;20097;-73
2022/09/12 08:08:05;;;;;;;13.52;8.55;;;;;;;;;;4954449;28;20019;-73
2022/09/12 08:10:31;;;;;;;16.25;7.78;;;;;;;;;;4937084;29;20476;-72
2022/09/12 08:12:57;;;;;;;13.73;7.38;;;;;;;;;;4954187;28;20477;-72
2022/09/12 08:15:23;;;;;;;10.57;6.75;;;;;;;;;;4957785;29;20411;-72
2022/09/12 08:17:50;;;;;;;12.68;6.53;;;;;;;;;;4958638;28;20039;-71
2022/09/12 08:20:16;;;;;;;10.13;6.43;;;;;;;;;;4963688;29;20063;-71
2022/09/12 08:22:43;;;;;;;9.13;5.47;;;;;;;;;;4961226;29;20403;-71
2022/09/12 08:25:09;;;;;;;11.27;5.70;;;;;;;;;;4954172;29;20103;-72
2022/09/12 08:27:35;;;;;;;7.75;5.28;;;;;;;;;;4958830;28;20035;-72
2022/09/12 08:30:01;;;;;;;5.50;4.32;;;;;;;;;;4968482;29;20029;-73
2022/09/12 08:32:27;;;;;;;10.55;5.05;;;;;;;;;;4950396;28;20125;-72
2022/09/12 08:34:53;;;;;;;7.18;4.60;;;;;;;;;;4965942;29;20027;-76
2022/09/12 08:37:19;;;;;;;6.07;4.13;;;;;;;;;;4966524;28;20032;-71
2022/09/12 08:39:46;;;;;;;8.82;4.15;;;;;;;;;;4970026;28;20031;-71
2022/09/12 08:42:21;;;;;;;9.48;4.30;;;;;;;;;;4968701;28;20087;-71
2022/09/12 08:44:55;;;;;;;7.43;3.90;;;;;;;;;;4970163;28;20019;-70
2022/09/12 08:47:41;;;;;;;6.72;4.13;;;;;;;;;;4969963;28;20120;-71
2022/09/12 08:50:11;;;;;;;6.47;3.55;;;;;;;;;;4970447;28;20028;-72
2022/09/12 08:52:49;;;;;;;25.90;7.55;;;;;;;;;;4970293;28;20081;-72
2022/09/12 08:55:38;;;;;;;7.45;3.58;;;;;;;;;;4955813;28;20020;-74
2022/09/12 08:58:26;;;;;;;5.40;3.35;;;;;;;;;;4970766;28;20040;-72
2022/09/12 09:01:01;;;;;;;8.20;3.20;;;;;;;;;;4970550;29;20020;-74
2022/09/12 09:03:45;;;;;;;10.95;2.88;;;;;;;;;;4957110;28;20039;-73
2022/09/12 09:06:30;;;;;;;8.30;4.55;;;;;;;;;;4974632;28;20059;-74
2022/09/12 09:09:18;;;;;;;8.43;3.08;;;;;;;;;;4973971;28;20054;-74
2022/09/12 09:11:56;;;;;;;7.30;2.38;;;;;;;;;;4963808;28;20476;-73
2022/09/12 09:17:19;;;;;;;9.68;2.47;;;;;;;;;;4953617;28;20078;-71
2022/09/12 09:19:48;;;;;;;3.28;2.05;;;;;;;;;;4953778;28;20454;-74
2022/09/12 09:22:17;;;;;;;6.18;1.83;;;;;;;;;;4952643;28;20112;-74
2022/09/12 09:24:52;;;;;;;3.67;1.90;;;;;;;;;;4952375;28;20027;-70
2022/09/12 09:27:38;;;;;;;4.75;1.73;;;;;;;;;;4952551;28;20036;-73
2022/09/12 09:30:04;;;;;;;9.35;1.90;;;;;;;;;;4953531;28;20540;-72
2022/09/12 09:32:35;;;;;;;3.50;1.75;;;;;;;;;;4952920;28;20488;-72
2022/09/12 09:35:02;;;;;;;3.33;1.73;;;;;;;;;;4953552;28;20023;-73
2022/09/12 09:37:36;;;;;;;2.70;1.63;;;;;;;;;;4952803;28;20058;-72
2022/09/12 09:40:28;;;;;;;3.88;1.90;;;;;;;;;;4959154;28;20028;-72
2022/09/12 09:42:54;;;;;;;7.15;2.05;;;;;;;;;;5029980;28;20071;-74
2022/09/12 09:45:23;;;;;;;8.15;2.10;;;;;;;;;;4968446;28;20034;-73
2022/09/12 09:48:03;;;;;;;3.15;2.20;;;;;;;;;;4952331;28;20023;-73
2022/09/12 09:50:29;;;;;;;4.97;2.88;;;;;;;;;;4952052;28;20104;-72
2022/09/12 09:52:56;;;;;;;4.18;1.90;;;;;;;;;;4952414;28;20024;-72
2022/09/12 09:55:24;;;;;;;11.60;3.10;;;;;;;;;;4954075;28;20046;-72
2022/09/12 09:57:52;;;;;;;2.83;2.00;;;;;;;;;;4951827;28;20035;-72
2022/09/12 10:00:35;;;;;;;8.77;3.63;;;;;;;;;;4951885;28;20024;-74
2022/09/12 10:03:03;;;;;;;5.05;2.60;;;;;;;;;;4954676;28;20491;-72
2022/09/12 10:05:30;;;;;;;6.22;2.80;;;;;;;;;;4952631;28;20019;-73
2022/09/12 10:07:56;;;;;;;5.20;2.80;;;;;;;;;;4951737;28;20472;-73
2022/09/12 10:10:22;;;;;;;7.65;2.75;;;;;;;;;;4952952;28;20035;-72
2022/09/12 10:12:48;;;;;;;6.45;3.10;;;;;;;;;;4951608;28;20480;-72
2022/09/12 10:15:22;;;;;;;10.88;3.15;;;;;;;;;;4951596;28;20491;-72
2022/09/12 10:17:49;;;;;;;6.75;2.80;;;;;;;;;;4951585;28;20030;-71
2022/09/12 10:20:33;;;;;;;9.68;2.78;;;;;;;;;;4951410;28;20023;-72
2022/09/12 10:23:00;;;;;;;7.78;2.95;;;;;;;;;;4953071;28;20027;-72
2022/09/12 10:25:27;;;;;;;9.93;3.45;;;;;;;;;;4951461;28;20029;-72
2022/09/12 10:27:55;;;;;;;6.50;3.28;;;;;;;;;;4951459;28;20031;-72
2022/09/12 10:30:23;;;;;;;7.95;2.83;;;;;;;;;;4951757;28;20023;-71
2022/09/12 10:32:50;;;;;;;19.98;3.97;;;;;;;;;;4954444;28;20053;-72
2022/09/12 10:35:20;;;;;;;8.02;2.38;;;;;;;;;;4950718;28;20032;-71
2022/09/12 10:37:52;;;;;;;7.65;2.50;;;;;;;;;;4950638;28;20069;-72
2022/09/12 10:40:23;;;;;;;5.07;2.00;;;;;;;;;;4951067;28;20027;-71
2022/09/12 10:42:50;;;;;;;7.32;2.38;;;;;;;;;;4950951;28;20476;-71
2022/09/12 10:45:25;;;;;;;4.80;2.35;;;;;;;;;;4951115;28;20015;-71
2022/09/12 10:47:52;;;;;;;5.55;2.40;;;;;;;;;;4952168;28;20034;-73
2022/09/12 10:50:21;;;;;;;3.05;1.83;;;;;;;;;;4951752;28;20065;-71
2022/09/12 10:52:47;;;;;;;7.93;2.13;;;;;;;;;;4951935;28;20023;-71
2022/09/12 10:55:16;;;;;;;3.60;1.98;;;;;;;;;;4951603;28;20028;-71
2022/09/12 10:57:50;;;;;;;6.25;2.30;;;;;;;;;;4950793;28;20108;-72
2022/09/12 11:00:16;;;;;;;;;;;;;;;;;;4951567;28;20081;-70
2022/09/12 11:02:50;;;;;;;2.95;1.95;;;;;;;;;;4950977;28;19960;-69
2022/09/12 11:05:21;;;;;;;3.20;1.73;;;;;;;;;;4952315;28;20480;-73
2022/09/12 11:07:54;;;;;;;4.60;1.58;;;;;;;;;;4951695;28;20039;-71
2022/09/12 11:10:20;;;;;;;5.07;1.80;;;;;;;;;;4951980;28;20039;-75
2022/09/12 11:13:06;;;;;;;6.57;1.83;;;;;;;;;;4951354;28;20031;-73
2022/09/12 11:15:38;;;;;;;4.45;1.42;;;;;;;;;;4951355;28;20373;-73
2022/09/12 11:18:13;;;;;;;3.55;1.60;;;;;;;;;;4951025;28;20039;-71
2022/09/12 11:21:08;;;;;;;6.40;1.90;;;;;;;;;;4950683;28;20031;-71
2022/09/12 11:23:54;;;;;;;2.22;1.42;;;;;;;;;;4956462;28;20404;-72
2022/09/12 11:26:43;;;;;;;2.38;1.40;;;;;;;;;;4934620;28;20032;-71
2022/09/12 11:29:24;;;;;;;2.88;1.20;;;;;;;;;;4959663;28;20120;-72
2022/09/12 11:31:56;;;;;;;2.25;1.40;;;;;;;;;;4933630;28;20023;-72
2022/09/12 11:34:43;;;;;;;2.90;1.30;;;;;;;;;;4951274;28;20031;-72
2022/09/12 11:37:19;;;;;;;1.95;0.98;;;;;;;;;;4950166;28;20420;-71
2022/09/12 11:39:46;;;;;;;3.10;1.13;;;;;;;;;;4950406;28;20035;-69
2022/09/12 11:42:16;;;;;;;2.00;1.45;;;;;;;;;;4950140;28;20027;-73
2022/09/12 11:44:44;;;;;;;3.33;1.55;;;;;;;;;;4934123;28;20026;-72
2022/09/12 11:47:12;;;;;;;2.83;1.13;;;;;;;;;;4953012;28;20077;-73
2022/09/12 11:49:41;;;;;;;2.75;1.40;;;;;;;;;;4941521;28;20069;-72
2022/09/12 11:52:13;;;;;;;5.15;1.45;;;;;;;;;;4956156;28;20484;-71
2022/09/12 11:54:46;;;;;;;5.32;1.20;;;;;;;;;;4955801;28;20093;-72
2022/09/12 11:57:30;;;;;;;5.80;2.83;;;;;;;;;;4953851;28;20137;-71
2022/09/12 11:59:56;;;;;;;3.83;2.92;;;;;;;;;;4954526;28;20118;-71
2022/09/12 12:02:26;;;;;;;2.67;1.50;;;;;;;;;;4954009;28;20107;-69
2022/09/12 12:04:58;;;;;;;5.00;1.50;;;;;;;;;;4953154;28;20028;-71
2022/09/12 12:07:24;;;;;;;3.50;1.17;;;;;;;;;;4936295;28;20028;-71
2022/09/12 12:09:51;;;;;;;3.13;1.48;;;;;;;;;;4936594;28;20034;-71
2022/09/12 12:12:20;;;;;;;5.10;1.50;;;;;;;;;;4953419;28;20023;-71
2022/09/12 12:14:48;;;;;;;7.03;1.52;;;;;;;;;;4953146;28;20034;-71
2022/09/12 12:17:18;;;;;;;6.60;1.30;;;;;;;;;;4953123;28;20806;-71
2022/09/12 12:19:45;;;;;;;7.18;1.88;;;;;;;;;;4936138;28;20031;-71
2022/09/12 12:22:11;;;;;;;6.65;1.50;;;;;;;;;;4953312;28;20074;-72
2022/09/12 12:24:53;;;;;;;7.78;1.35;;;;;;;;;;4953937;28;20372;-72
2022/09/12 12:27:23;;;;;;;2.42;1.45;;;;;;;;;;4952250;28;20043;-71
2022/09/12 12:29:49;;;;;;;4.38;1.48;;;;;;;;;;4952577;28;20120;-69
2022/09/12 12:32:15;;;;;;;4.07;1.75;;;;;;;;;;4953483;28;20425;-74
2022/09/12 12:34:42;;;;;;;2.97;2.08;;;;;;;;;;4953151;28;20038;-70
2022/09/12 12:37:28;;;;;;;3.20;1.30;;;;;;;;;;4935452;28;20043;-71
2022/09/12 12:39:59;;;;;;;2.60;1.55;;;;;;;;;;4952747;29;20054;-71
2022/09/12 12:42:34;;;;;;;5.30;1.67;;;;;;;;;;4954456;28;20054;-70
2022/09/12 12:45:00;;;;;;;4.60;1.50;;;;;;;;;;4954589;28;20476;-71
2022/09/12 12:47:28;;;;;;;3.15;1.48;;;;;;;;;;4954364;28;20216;-71
2022/09/12 12:49:58;;;;;;;8.25;2.58;;;;;;;;;;4954954;28;20049;-72
2022/09/12 12:52:27;;;;;;;3.08;1.52;;;;;;;;;;4954043;28;20023;-72
2022/09/12 12:54:57;;;;;;;4.28;1.52;;;;;;;;;;4953839;28;20037;-72
2022/09/12 12:57:23;;;;;;;4.45;1.98;;;;;;;;;;4936298;28;20498;-71
2022/09/12 12:59:57;;;;;;;6.70;1.60;;;;;;;;;;4953300;28;20031;-71
2022/09/12 13:02:23;;;;;;;;;;;;;;;;;;4952940;28;20038;-70
2022/09/12 13:04:49;;;;;;;4.10;2.05;;;;;;;;;;4952510;28;19906;-72
2022/09/12 13:07:22;;;;;;;4.93;2.17;;;;;;;;;;4952500;28;20087;-72
2022/09/12 13:09:54;;;;;;;3.05;1.85;;;;;;;;;;4953072;28;20431;-72
2022/09/12 13:12:20;;;;;;;6.38;1.90;;;;;;;;;;4952563;28;20108;-72
2022/09/12 13:14:46;;;;;;;3.15;1.40;;;;;;;;;;4952729;28;20479;-71
2022/09/12 13:17:18;;;;;;;4.50;1.60;;;;;;;;;;4955249;28;20030;-73
2022/09/12 13:19:44;;;;;;;4.10;1.45;;;;;;;;;;4955653;28;20039;-70
2022/09/12 13:22:10;;;;;;;4.50;1.42;;;;;;;;;;4953501;28;20050;-70
2022/09/12 13:24:43;;;;;;;3.20;1.40;;;;;;;;;;4955845;28;20023;-71
2022/09/12 13:27:24;;;;;;;6.25;1.65;;;;;;;;;;4956114;28;20023;-71
2022/09/12 13:30:05;;;;;;;3.00;1.45;;;;;;;;;;4953539;28;20538;-71
2022/09/12 13:32:31;;;;;;;6.75;3.63;;;;;;;;;;4936695;28;20061;-70
2022/09/12 13:35:12;;;;;;;4.07;1.63;;;;;;;;;;4935022;28;20031;-70
2022/09/12 13:37:43;;;;;;;6.13;1.63;;;;;;;;;;4952105;28;20102;-72
2022/09/12 13:40:22;;;;;;;4.72;1.83;;;;;;;;;;4952241;29;20031;-71
2022/09/12 13:42:53;;;;;;;5.63;1.70;;;;;;;;;;4953733;29;20089;-71
2022/09/12 13:45:20;;;;;;;2.28;1.52;;;;;;;;;;4936429;28;20045;-71
2022/09/12 13:47:48;;;;;;;5.40;2.90;;;;;;;;;;4952376;28;20034;-70
2022/09/12 13:50:19;;;;;;;3.95;1.90;;;;;;;;;;4952206;28;20461;-70
2022/09/12 13:52:47;;;;;;;4.53;1.80;;;;;;;;;;4956207;28;20518;-71
2022/09/12 13:55:22;;;;;;;4.75;2.17;;;;;;;;;;4953308;28;20115;-71
2022/09/12 13:57:55;;;;;;;6.38;1.95;;;;;;;;;;4953482;28;20020;-71
2022/09/12 14:00:21;;;;;;;3.40;1.90;;;;;;;;;;4952830;28;20023;-71
2022/09/12 14:02:48;;;;;;;5.45;2.30;;;;;;;;;;4952981;28;20160;-72
2022/09/12 14:05:21;;;;;;;6.65;2.08;;;;;;;;;;4954082;29;20027;-71
2022/09/12 14:07:52;;;;;;;4.60;2.13;;;;;;;;;;4953019;28;20035;-71
2022/09/12 14:10:23;;;;;;;5.28;2.47;;;;;;;;;;4948496;29;20110;-71
2022/09/12 14:12:51;;;;;;;4.15;2.60;;;;;;;;;;4936627;29;20059;-70
2022/09/12 14:15:24;;;;;;;5.25;2.08;;;;;;;;;;4953949;28;20022;-72
2022/09/12 14:17:53;;;;;;;5.30;2.40;;;;;;;;;;4952306;28;20028;-72
2022/09/12 14:20:21;;;;;;;3.85;2.30;;;;;;;;;;4952504;29;20026;-72
2022/09/12 14:22:48;;;;;;;4.32;2.42;;;;;;;;;;4951797;28;20027;-71
2022/09/12 14:25:18;;;;;;;4.45;2.08;;;;;;;;;;4952424;29;20033;-70
2022/09/12 14:27:48;;;;;;;5.30;2.90;;;;;;;;;;4951970;28;20031;-73
2022/09/12 14:30:20;;;;;;;6.68;2.10;;;;;;;;;;4949969;28;20031;-72
2022/09/12 14:33:13;;;;;;;6.65;2.50;;;;;;;;;;4951025;28;20097;-71
2022/09/12 14:35:42;;;;;;;4.95;1.90;;;;;;;;;;4949911;28;20031;-73
2022/09/12 14:38:29;;;;;;;3.70;1.80;;;;;;;;;;4950967;28;20023;-72
2022/09/12 14:41:03;;;;;;;5.50;2.35;;;;;;;;;;4952669;29;20038;-72
2022/09/12 14:43:30;;;;;;;9.15;2.33;;;;;;;;;;4952525;28;20023;-73
2022/09/12 14:46:07;;;;;;;5.82;2.10;;;;;;;;;;4950436;28;20027;-71
2022/09/12 14:48:37;;;;;;;7.82;3.58;;;;;;;;;;4951991;28;20034;-72
2022/09/12 14:51:04;;;;;;;4.00;2.08;;;;;;;;;;4955631;28;20445;-71
2022/09/12 14:53:35;;;;;;;7.55;2.10;;;;;;;;;;4952897;28;20110;-71
2022/09/12 14:56:11;;;;;;;8.95;2.50;;;;;;;;;;4952894;28;20038;-72